Time;durP1;ratioP1;P1;durP2;ratioP2;P2;SDS_P1;SDS_P2;PMS_P1;PMS_P2;Temp;Humidity;BMP_temperature;BMP_pressure;BME280_temperature;BME280_humidity;BME280_pressure;Samples;Min_cycle;Max_cycle;Signal;HPM_P1;HPM_P2
2022/09/08 00:00:51;;;;;;;3.90;2.30;;;19.70;74.70;;;;;;5039691;28;20437;-71
2022/09/08 00:03:20;;;;;;;2.53;2.33;;;19.60;74.50;;;;;;5047689;28;20460;-72
2022/09/08 00:05:51;;;;;;;3.22;2.50;;;19.60;75.00;;;;;;5046973;28;20429;-74
2022/09/08 00:08:20;;;;;;;2.85;2.40;;;19.60;75.40;;;;;;5046932;28;20437;-71
2022/09/08 00:10:49;;;;;;;3.10;2.70;;;19.60;75.10;;;;;;5044570;28;20441;-72
2022/09/08 00:13:17;;;;;;;3.38;2.38;;;19.50;75.70;;;;;;5047719;28;20520;-72
2022/09/08 00:15:45;;;;;;;3.53;2.10;;;19.50;75.90;;;;;;5048162;28;20436;-73
2022/09/08 00:18:12;;;;;;;3.63;2.80;;;19.50;76.40;;;;;;5043579;28;20436;-71
2022/09/08 00:20:39;;;;;;;3.90;2.65;;;19.50;76.30;;;;;;5046331;28;20425;-72
2022/09/08 00:23:06;;;;;;;3.70;2.60;;;19.40;77.30;;;;;;5049009;28;21105;-73
2022/09/08 00:25:33;;;;;;;3.35;2.50;;;19.40;76.70;;;;;;5043749;28;20421;-73
2022/09/08 00:28:00;;;;;;;3.40;2.50;;;19.40;77.10;;;;;;5048512;28;20413;-72
2022/09/08 00:30:26;;;;;;;4.05;2.40;;;19.30;76.40;;;;;;5039814;28;20448;-72
2022/09/08 00:32:54;;;;;;;2.83;2.33;;;19.30;76.70;;;;;;5047715;28;20529;-72
2022/09/08 00:35:21;;;;;;;2.97;2.60;;;19.30;76.30;;;;;;5038914;28;20440;-73
2022/09/08 00:37:49;;;;;;;2.60;2.40;;;19.30;76.40;;;;;;5046461;28;20437;-74
2022/09/08 00:40:16;;;;;;;3.08;2.78;;;19.20;76.80;;;;;;5047106;28;20433;-73
2022/09/08 00:42:43;;;;;;;4.95;2.80;;;19.20;76.70;;;;;;5042156;28;20526;-71
2022/09/08 00:45:11;;;;;;;3.78;2.50;;;19.20;76.70;;;;;;5047030;28;20448;-72
2022/09/08 00:47:44;;;;;;;3.50;2.67;;;19.20;76.00;;;;;;5046546;28;20446;-73
2022/09/08 00:50:17;;;;;;;4.25;2.60;;;19.20;76.30;;;;;;5045330;28;20436;-72
2022/09/08 00:52:50;;;;;;;2.50;2.30;;;19.20;76.50;;;;;;5047604;28;20435;-72
2022/09/08 00:55:19;;;;;;;3.40;2.70;;;19.10;76.60;;;;;;5064104;28;20425;-74
2022/09/08 00:57:45;;;;;;;3.25;2.30;;;19.10;75.80;;;;;;5064500;28;20802;-74
2022/09/08 01:00:16;;;;;;;2.70;2.33;;;19.10;76.10;;;;;;5047285;28;20429;-73
2022/09/08 01:02:45;;;;;;;3.40;2.30;;;19.10;76.00;;;;;;5049082;28;20436;-74
2022/09/08 01:05:15;;;;;;;2.90;2.22;;;19.10;76.20;;;;;;5056033;28;20915;-73
2022/09/08 01:13:38;;;;;;;2.53;2.33;;;19.10;76.50;;;;;;5038739;28;20446;-74
2022/09/08 01:16:06;;;;;;;2.53;2.20;;;19.10;76.60;;;;;;5038403;28;20439;-73
2022/09/08 01:18:34;;;;;;;3.30;2.70;;;19.10;76.10;;;;;;5046995;28;20984;-74
2022/09/08 01:21:13;;;;;;;3.40;2.40;;;19.10;76.20;;;;;;5045114;28;20516;-74
2022/09/08 01:23:59;;;;;;;3.27;2.40;;;19.10;75.90;;;;;;5045964;28;20535;-71
2022/09/08 01:27:21;;;;;;;3.35;2.60;;;19.10;75.20;;;;;;5046093;28;20425;-73
2022/09/08 01:29:49;;;;;;;3.15;2.90;;;19.10;75.60;;;;;;5007369;28;20433;-72
2022/09/08 01:32:16;;;;;;;3.10;2.58;;;19.10;75.00;;;;;;5046190;28;20429;-71
2022/09/08 01:34:45;;;;;;;4.50;2.80;;;19.10;75.30;;;;;;5047472;28;20994;-74
2022/09/08 01:37:12;;;;;;;2.80;2.50;;;19.10;74.70;;;;;;5047394;28;20429;-72
2022/09/08 01:39:39;;;;;;;3.30;2.58;;;19.00;75.70;;;;;;5045018;28;20430;-74
2022/09/08 01:42:06;;;;;;;3.10;2.50;;;19.00;75.30;;;;;;5045998;28;20909;-72
2022/09/08 01:44:35;;;;;;;4.80;2.35;;;19.00;75.50;;;;;;5043610;28;20433;-72
2022/09/08 01:47:01;;;;;;;3.47;2.50;;;19.10;75.20;;;;;;5047100;28;20444;-74
2022/09/08 01:49:28;;;;;;;3.83;2.60;;;19.00;75.70;;;;;;5047631;28;20910;-71
2022/09/08 01:51:55;;;;;;;3.10;2.28;;;19.10;75.90;;;;;;5046866;28;20445;-72
2022/09/08 01:54:21;;;;;;;2.65;2.30;;;19.10;75.90;;;;;;5051453;28;20510;-73
2022/09/08 01:56:48;;;;;;;2.70;2.20;;;19.10;75.50;;;;;;5050857;28;20962;-73
2022/09/08 01:59:15;;;;;;;3.97;2.15;;;19.10;75.30;;;;;;5061241;28;20434;-72
2022/09/08 02:01:43;;;;;;;2.40;2.20;;;19.10;75.80;;;;;;5064995;28;20436;-73
2022/09/08 02:04:10;;;;;;;3.20;2.30;;;19.10;75.10;;;;;;5070405;28;20429;-73
2022/09/08 02:06:37;;;;;;;3.42;2.20;;;19.10;75.20;;;;;;5068364;28;20431;-73
2022/09/08 02:09:04;;;;;;;3.00;2.13;;;19.20;75.00;;;;;;5067889;28;20477;-74
2022/09/08 02:11:31;;;;;;;5.00;2.10;;;19.10;74.30;;;;;;5074212;28;20429;-72
2022/09/08 02:13:58;;;;;;;3.58;2.00;;;19.20;75.20;;;;;;5053440;28;20915;-73
2022/09/08 02:16:25;;;;;;;2.40;2.10;;;19.20;74.80;;;;;;5052849;28;20433;-73
2022/09/08 02:18:55;;;;;;;3.40;2.28;;;19.10;74.80;;;;;;5050540;28;20448;-76
2022/09/08 02:21:24;;;;;;;3.58;2.60;;;19.10;75.50;;;;;;5052642;28;21021;-73
2022/09/08 02:23:51;;;;;;;2.85;2.33;;;19.10;75.50;;;;;;5050161;28;20433;-73
2022/09/08 02:26:20;;;;;;;2.72;2.30;;;19.10;75.80;;;;;;5071520;28;20421;-73
2022/09/08 02:28:47;;;;;;;2.20;2.00;;;19.10;75.60;;;;;;5075067;28;20428;-74
2022/09/08 02:31:15;;;;;;;3.00;2.40;;;19.10;76.20;;;;;;5067081;28;20443;-73
2022/09/08 02:33:42;;;;;;;3.50;2.40;;;19.10;76.60;;;;;;5050776;28;20417;-73
2022/09/08 02:36:10;;;;;;;2.40;2.20;;;19.10;77.50;;;;;;5044087;28;20522;-74
2022/09/08 02:38:37;;;;;;;2.92;2.72;;;19.00;78.10;;;;;;5049970;28;20440;-73
2022/09/08 02:41:06;;;;;;;2.65;2.40;;;19.00;77.10;;;;;;5048531;28;20430;-73
2022/09/08 02:43:33;;;;;;;3.00;2.70;;;19.00;78.30;;;;;;5050844;28;20490;-73
2022/09/08 02:46:04;;;;;;;3.13;2.50;;;18.90;79.10;;;;;;5047496;28;20500;-74
2022/09/08 02:48:31;;;;;;;4.90;2.95;;;18.80;78.90;;;;;;5049281;28;20989;-73
2022/09/08 02:51:00;;;;;;;3.30;2.65;;;18.70;81.80;;;;;;5056462;28;20440;-73
2022/09/08 02:53:28;;;;;;;4.03;3.17;;;18.70;81.00;;;;;;5041970;28;20549;-72
2022/09/08 02:55:55;;;;;;;7.22;3.40;;;18.60;83.50;;;;;;5044943;28;20440;-74
2022/09/08 02:58:22;;;;;;;3.95;3.60;;;18.50;85.60;;;;;;5047568;28;20432;-73
2022/09/08 03:00:49;;;;;;;4.30;3.90;;;18.30;89.20;;;;;;5048034;28;20432;-73
2022/09/08 03:03:16;;;;;;;4.82;4.07;;;18.10;89.70;;;;;;5043578;28;20500;-72
2022/09/08 03:05:42;;;;;;;4.55;4.15;;;18.00;90.30;;;;;;5047576;28;20426;-74
2022/09/08 03:08:09;;;;;;;5.40;4.78;;;18.00;91.10;;;;;;5049443;28;20444;-74
2022/09/08 03:10:38;;;;;;;4.70;4.20;;;17.90;91.70;;;;;;5051409;28;20424;-73
2022/09/08 03:13:05;;;;;;;6.90;5.00;;;17.80;92.20;;;;;;5049309;28;20461;-73
2022/09/08 03:15:32;;;;;;;5.40;4.90;;;17.70;92.40;;;;;;5049961;28;20440;-74
2022/09/08 03:18:03;;;;;;;4.68;4.18;;;17.60;92.30;;;;;;5041023;28;20793;-75
2022/09/08 03:20:30;;;;;;;5.53;4.80;;;17.60;91.80;;;;;;5047967;28;20922;-72
2022/09/08 03:22:57;;;;;;;5.43;4.93;;;17.50;92.70;;;;;;5043641;28;20442;-74
2022/09/08 03:25:24;;;;;;;5.07;4.38;;;17.50;93.20;;;;;;5049605;28;20428;-73
2022/09/08 03:27:52;;;;;;;5.30;4.80;;;17.50;92.60;;;;;;5043506;28;20432;-73
2022/09/08 03:30:19;;;;;;;5.97;5.50;;;17.40;92.70;;;;;;5048202;28;20424;-73
2022/09/08 03:32:47;;;;;;;5.37;4.87;;;17.40;93.10;;;;;;5048782;28;20807;-72
2022/09/08 03:35:16;;;;;;;7.32;6.22;;;17.20;92.90;;;;;;5046782;28;20539;-73
2022/09/08 03:37:43;;;;;;;8.48;7.68;;;17.10;93.10;;;;;;5041729;28;22181;-74
2022/09/08 03:40:12;;;;;;;9.80;9.00;;;17.00;93.80;;;;;;5045330;28;20429;-74
2022/09/08 03:42:40;;;;;;;9.10;8.30;;;17.00;94.80;;;;;;5044584;28;20417;-73
2022/09/08 03:45:11;;;;;;;8.00;7.30;;;17.00;95.10;;;;;;5047267;28;20441;-74
2022/09/08 03:47:38;;;;;;;9.50;8.00;;;17.00;95.30;;;;;;5040929;28;20443;-72
2022/09/08 03:50:06;;;;;;;8.70;7.80;;;17.00;95.60;;;;;;5045208;28;20473;-73
2022/09/08 03:52:33;;;;;;;7.95;7.25;;;17.10;96.00;;;;;;5051636;28;20453;-73
2022/09/08 03:55:00;;;;;;;8.20;7.20;;;17.10;96.40;;;;;;5041067;28;20444;-73
2022/09/08 03:57:29;;;;;;;7.90;7.10;;;17.10;96.10;;;;;;5046719;28;20535;-73
2022/09/08 03:59:57;;;;;;;6.40;5.88;;;17.10;96.30;;;;;;5040021;28;20440;-74
2022/09/08 04:02:27;;;;;;;7.20;6.47;;;17.00;96.40;;;;;;5046107;28;20918;-73
2022/09/08 04:04:56;;;;;;;5.78;5.00;;;17.00;96.40;;;;;;5039980;28;20448;-74
2022/09/08 04:07:25;;;;;;;6.28;5.53;;;17.00;96.40;;;;;;5042399;28;20938;-74
2022/09/08 04:09:52;;;;;;;7.23;5.83;;;17.00;96.20;;;;;;5051164;28;20441;-74
2022/09/08 04:12:19;;;;;;;6.65;5.78;;;16.90;96.70;;;;;;5042667;28;20534;-74
2022/09/08 04:14:48;;;;;;;6.85;6.25;;;16.90;96.20;;;;;;5041473;28;20816;-74
2022/09/08 04:17:15;;;;;;;7.90;6.45;;;16.90;96.30;;;;;;5046674;28;20453;-73
2022/09/08 04:19:43;;;;;;;6.10;5.50;;;16.90;96.30;;;;;;5051661;28;20942;-74
2022/09/08 04:22:11;;;;;;;6.95;5.97;;;16.80;96.20;;;;;;5054776;28;20416;-75
2022/09/08 04:24:38;;;;;;;8.05;7.30;;;16.80;96.20;;;;;;5041784;28;20926;-74
2022/09/08 04:27:05;;;;;;;7.75;6.95;;;16.80;96.60;;;;;;5042214;28;20433;-75
2022/09/08 04:29:32;;;;;;;8.27;7.57;;;16.80;96.80;;;;;;5038262;28;20421;-74
2022/09/08 04:31:58;;;;;;;7.77;7.07;;;16.80;96.90;;;;;;5037548;28;20517;-74
2022/09/08 04:34:25;;;;;;;8.20;7.50;;;16.80;96.90;;;;;;5036579;28;20454;-74
2022/09/08 04:36:53;;;;;;;8.10;7.07;;;16.80;97.10;;;;;;5035137;28;20435;-75
2022/09/08 04:39:20;;;;;;;8.88;8.07;;;16.80;97.20;;;;;;5038891;28;20470;-74
2022/09/08 04:41:48;;;;;;;8.63;7.50;;;16.90;97.40;;;;;;5045911;28;20544;-74
2022/09/08 04:44:14;;;;;;;8.50;7.70;;;16.90;97.40;;;;;;5039278;28;20437;-75
2022/09/08 04:46:41;;;;;;;8.87;7.97;;;16.90;97.50;;;;;;5040437;28;20452;-75
2022/09/08 04:49:08;;;;;;;9.32;8.45;;;16.90;97.40;;;;;;5040693;28;20445;-76
2022/09/08 04:51:35;;;;;;;8.10;7.40;;;16.90;97.50;;;;;;5046201;28;20862;-74
2022/09/08 04:54:04;;;;;;;9.13;8.32;;;16.90;97.50;;;;;;5040495;28;20433;-74
2022/09/08 04:56:31;;;;;;;8.80;8.10;;;16.90;97.70;;;;;;5045940;28;20464;-76
2022/09/08 04:58:59;;;;;;;9.27;8.38;;;16.90;97.70;;;;;;5065859;22;20429;-73
2022/09/08 05:01:28;;;;;;;9.20;7.85;;;16.90;97.80;;;;;;5068390;28;20433;-72
2022/09/08 05:03:58;;;;;;;8.40;7.60;;;16.90;97.80;;;;;;5077301;28;20455;-72
2022/09/08 05:06:26;;;;;;;7.55;6.75;;;16.90;97.80;;;;;;5076151;28;20433;-72
2022/09/08 05:08:56;;;;;;;7.38;6.57;;;16.90;97.70;;;;;;5076759;28;20437;-72
2022/09/08 05:11:25;;;;;;;9.00;7.72;;;16.90;98.10;;;;;;5064115;28;20415;-72
2022/09/08 05:13:52;;;;;;;8.88;7.97;;;16.90;97.70;;;;;;5060184;28;20447;-72
2022/09/08 05:16:21;;;;;;;8.35;6.75;;;16.90;97.80;;;;;;5058380;28;20533;-72
2022/09/08 05:18:48;;;;;;;7.40;6.70;;;16.80;97.60;;;;;;5061321;28;20442;-72
2022/09/08 05:21:15;;;;;;;7.85;7.05;;;16.80;97.70;;;;;;5062100;28;20526;-72
2022/09/08 05:23:42;;;;;;;9.03;6.80;;;16.90;97.70;;;;;;5061314;28;20880;-71
2022/09/08 05:26:15;;;;;;;7.72;6.93;;;16.80;97.70;;;;;;5062226;28;20455;-72
2022/09/08 05:28:44;;;;;;;8.40;7.50;;;16.90;97.80;;;;;;5063434;28;20436;-72
2022/09/08 05:31:13;;;;;;;8.55;7.10;;;16.90;97.80;;;;;;5043073;28;21037;-72
2022/09/08 05:33:40;;;;;;;8.20;7.40;;;16.80;97.70;;;;;;5061865;28;20936;-72
2022/09/08 05:36:12;;;;;;;7.60;6.90;;;16.80;97.80;;;;;;5057972;28;20491;-72
2022/09/08 05:38:38;;;;;;;7.82;7.03;;;16.90;98.00;;;;;;5059838;28;20454;-73
2022/09/08 05:41:06;;;;;;;7.43;6.25;;;16.80;97.90;;;;;;5062675;28;20497;-73
2022/09/08 05:43:33;;;;;;;6.18;5.55;;;16.90;97.90;;;;;;5068499;28;20804;-72
2022/09/08 05:46:01;;;;;;;5.90;5.30;;;16.80;97.60;;;;;;5065849;28;20408;-72
2022/09/08 05:48:28;;;;;;;5.80;5.20;;;16.80;97.50;;;;;;5066402;28;20450;-72
2022/09/08 05:50:55;;;;;;;6.13;5.63;;;16.70;97.40;;;;;;5057669;28;20529;-71
2022/09/08 05:53:22;;;;;;;7.20;6.50;;;16.70;97.20;;;;;;5064809;28;20511;-72
2022/09/08 05:55:56;;;;;;;6.80;6.20;;;16.70;97.20;;;;;;5070439;28;20956;-71
2022/09/08 05:58:24;;;;;;;7.50;6.80;;;16.70;97.20;;;;;;5058786;28;20867;-73
2022/09/08 06:00:57;;;;;;;7.97;7.18;;;16.60;97.40;;;;;;5074153;28;20920;-71
2022/09/08 06:03:26;;;;;;;9.70;8.80;;;16.60;97.40;;;;;;5059469;28;20453;-73
2022/09/08 06:05:54;;;;;;;10.35;9.35;;;16.60;97.70;;;;;;5059746;28;20502;-73
2022/09/08 06:08:21;;;;;;;8.90;8.10;;;16.60;97.70;;;;;;5063127;28;20683;-72
2022/09/08 06:10:52;;;;;;;10.48;9.68;;;16.60;97.70;;;;;;5066081;28;20514;-72
2022/09/08 06:13:21;;;;;;;9.25;8.35;;;16.60;97.90;;;;;;5071810;28;20431;-72
2022/09/08 06:15:48;;;;;;;11.20;10.30;;;16.70;97.70;;;;;;5060429;28;20516;-73
2022/09/08 06:18:15;;;;;;;10.10;9.30;;;16.60;97.80;;;;;;5063385;28;20872;-72
2022/09/08 06:20:44;;;;;;;10.05;9.20;;;16.60;97.70;;;;;;5065124;28;20513;-72
2022/09/08 06:23:11;;;;;;;9.38;8.68;;;16.60;97.60;;;;;;5065502;28;20491;-72
2022/09/08 06:25:42;;;;;;;10.70;9.80;;;16.60;97.30;;;;;;5065432;28;20517;-71
2022/09/08 06:28:24;;;;;;;12.55;11.55;;;16.50;97.30;;;;;;5071771;28;20895;-72
2022/09/08 06:30:54;;;;;;;12.90;11.70;;;16.50;97.40;;;;;;5068193;28;20441;-72
2022/09/08 06:33:28;;;;;;;13.25;12.07;;;16.60;97.70;;;;;;5066036;28;20434;-72
2022/09/08 06:36:02;;;;;;;11.00;10.10;;;16.60;97.80;;;;;;5062780;28;20877;-71
2022/09/08 06:38:34;;;;;;;10.73;9.63;;;16.60;97.80;;;;;;5056000;28;20424;-72
2022/09/08 06:41:09;;;;;;;9.40;8.40;;;16.60;97.80;;;;;;5066267;28;20497;-72
2022/09/08 06:43:40;;;;;;;9.10;8.20;;;16.60;97.80;;;;;;5065565;28;20424;-72
2022/09/08 06:46:13;;;;;;;8.40;7.60;;;16.60;97.90;;;;;;5065410;28;20434;-72
2022/09/08 06:48:40;;;;;;;8.95;8.15;;;16.60;97.60;;;;;;5057320;28;20447;-72
2022/09/08 06:51:17;;;;;;;10.30;9.40;;;16.60;97.70;;;;;;5065488;28;20431;-72
2022/09/08 06:53:48;;;;;;;10.90;9.90;;;16.60;97.90;;;;;;5064755;28;20420;-74
2022/09/08 06:56:34;;;;;;;9.80;8.90;;;16.60;98.00;;;;;;5065101;28;20435;-73
2022/09/08 06:59:07;;;;;;;9.13;8.32;;;16.60;97.90;;;;;;5060308;28;20447;-72
2022/09/08 07:01:42;;;;;;;9.68;8.77;;;16.60;97.70;;;;;;5057695;28;20427;-72
2022/09/08 07:04:22;;;;;;;10.30;9.40;;;16.60;97.70;;;;;;5064959;28;20425;-72
2022/09/08 07:06:56;;;;;;;10.63;9.63;;;16.60;97.80;;;;;;5063328;28;20467;-73
2022/09/08 07:09:33;;;;;;;10.45;9.55;;;16.70;97.70;;;;;;5065673;28;20431;-72
2022/09/08 07:12:14;;;;;;;12.00;10.90;;;16.70;97.50;;;;;;5057773;28;20431;-72
2022/09/08 07:15:14;;;;;;;12.70;11.50;;;16.70;97.50;;;;;;5059944;28;20434;-72
2022/09/08 07:17:49;;;;;;;12.18;11.07;;;16.80;97.60;;;;;;5062629;28;20432;-72
2022/09/08 07:20:16;;;;;;;11.80;10.70;;;16.70;97.40;;;;;;5052999;28;20421;-72
2022/09/08 07:22:48;;;;;;;10.80;9.70;;;16.70;97.20;;;;;;5053175;28;20502;-74
2022/09/08 07:25:26;;;;;;;9.10;8.20;;;16.70;97.10;;;;;;5068233;28;20452;-74
2022/09/08 07:28:00;;;;;;;9.20;8.30;;;16.70;96.90;;;;;;5064979;28;20427;-72
2022/09/08 07:30:27;;;;;;;8.18;7.35;;;16.70;96.90;;;;;;5064904;28;20761;-73
2022/09/08 07:32:59;;;;;;;7.82;7.13;;;16.70;96.90;;;;;;5064664;28;20414;-72
2022/09/08 07:35:40;;;;;;;9.65;8.35;;;16.60;96.60;;;;;;5063934;28;20782;-72
2022/09/08 07:38:16;;;;;;;8.00;7.30;;;16.50;96.70;;;;;;5062164;28;20541;-73
2022/09/08 07:40:46;;;;;;;5.93;5.33;;;16.50;97.00;;;;;;5066019;28;20427;-73
2022/09/08 07:43:15;;;;;;;5.82;5.13;;;16.50;96.80;;;;;;5062846;28;20463;-73
2022/09/08 07:45:49;;;;;;;6.50;4.90;;;16.50;96.90;;;;;;5060898;28;20411;-72
2022/09/08 07:48:27;;;;;;;5.70;4.10;;;16.40;96.80;;;;;;5062911;28;20437;-73
2022/09/08 07:51:03;;;;;;;4.20;3.25;;;16.40;96.80;;;;;;5064144;28;20431;-72
2022/09/08 07:53:59;;;;;;;3.78;3.38;;;16.40;96.80;;;;;;5056931;28;20405;-72
2022/09/08 07:56:35;;;;;;;3.00;2.70;;;16.40;97.00;;;;;;5054386;28;20765;-73
2022/09/08 07:59:13;;;;;;;2.97;2.78;;;16.50;97.20;;;;;;5056786;28;20868;-74
2022/09/08 08:01:46;;;;;;;2.30;2.10;;;16.70;97.40;;;;;;5069712;28;20437;-73
2022/09/08 08:04:25;;;;;;;1.70;1.60;;;16.70;97.30;;;;;;5056556;28;21213;-72
2022/09/08 08:06:54;;;;;;;1.63;1.50;;;16.80;97.00;;;;;;5060318;28;20412;-73
2022/09/08 08:09:31;;;;;;;3.75;1.95;;;16.80;96.50;;;;;;5064910;28;20431;-72
2022/09/08 08:12:04;;;;;;;2.40;2.20;;;16.80;96.30;;;;;;5063280;28;20441;-72
2022/09/08 08:14:40;;;;;;;2.72;1.90;;;16.90;96.00;;;;;;5058297;28;20412;-72
2022/09/08 08:17:27;;;;;;;2.00;1.90;;;16.90;95.70;;;;;;5061127;28;20431;-72
2022/09/08 08:20:10;;;;;;;2.40;2.20;;;17.00;95.30;;;;;;5065325;28;20443;-72
2022/09/08 08:22:56;;;;;;;2.97;2.50;;;16.90;95.30;;;;;;5056085;28;20914;-72
2022/09/08 08:25:29;;;;;;;2.80;2.40;;;16.90;95.40;;;;;;5061131;28;20436;-72
2022/09/08 08:28:05;;;;;;;3.60;2.50;;;16.90;95.00;;;;;;5066686;28;20422;-72
2022/09/08 08:30:37;;;;;;;3.03;2.50;;;16.90;94.20;;;;;;5064035;28;20427;-75
2022/09/08 08:33:12;;;;;;;2.60;2.40;;;16.90;94.20;;;;;;5076743;28;20414;-73
2022/09/08 08:35:45;;;;;;;3.30;2.50;;;16.90;93.40;;;;;;5054156;28;20420;-73
2022/09/08 08:38:16;;;;;;;3.70;2.70;;;16.90;93.60;;;;;;5058874;28;20423;-72
2022/09/08 08:40:56;;;;;;;3.90;2.78;;;17.10;93.70;;;;;;5063311;28;20466;-72
2022/09/08 08:43:58;;;;;;;2.97;2.67;;;17.30;93.30;;;;;;5063542;28;20463;-73
2022/09/08 08:47:01;;;;;;;3.63;2.85;;;17.60;91.80;;;;;;5063252;28;21034;-72
2022/09/08 08:49:53;;;;;;;3.30;2.90;;;18.00;91.50;;;;;;5058360;28;21015;-72
2022/09/08 08:52:38;;;;;;;2.63;2.42;;;18.30;90.90;;;;;;5063266;28;20466;-71
2022/09/08 08:55:21;;;;;;;2.25;2.05;;;18.70;89.60;;;;;;5062681;28;20456;-72
2022/09/08 08:58:00;;;;;;;2.35;2.15;;;19.10;85.50;;;;;;5059570;28;20443;-71
2022/09/08 09:00:35;;;;;;;2.03;1.90;;;19.40;83.90;;;;;;5062986;28;20429;-73
2022/09/08 09:03:35;;;;;;;2.30;2.10;;;19.70;83.10;;;;;;5061964;28;20446;-72
2022/09/08 09:06:32;;;;;;;2.35;1.67;;;20.00;82.10;;;;;;5059723;28;20420;-72
2022/09/08 09:09:36;;;;;;;2.80;1.80;;;20.10;79.70;;;;;;5062664;28;20415;-72
2022/09/08 09:12:30;;;;;;;2.10;1.80;;;20.10;77.80;;;;;;5059240;28;20418;-72
2022/09/08 09:15:27;;;;;;;2.67;1.60;;;20.00;79.60;;;;;;5053338;28;20438;-72
2022/09/08 09:18:18;;;;;;;2.10;1.77;;;20.20;80.40;;;;;;5068268;28;20437;-73
2022/09/08 09:20:57;;;;;;;3.00;2.70;;;20.30;79.00;;;;;;5070931;28;20684;-72
2022/09/08 09:23:37;;;;;;;2.03;1.90;;;20.20;75.90;;;;;;5066308;28;20568;-72
2022/09/08 09:26:17;;;;;;;2.20;1.90;;;19.80;76.60;;;;;;5064774;28;20431;-71
2022/09/08 09:29:13;;;;;;;2.78;1.80;;;19.40;77.60;;;;;;5064882;28;20411;-73
2022/09/08 09:32:10;;;;;;;2.22;1.70;;;19.20;79.50;;;;;;5069276;28;20955;-71
2022/09/08 09:34:54;;;;;;;2.50;1.80;;;19.00;80.30;;;;;;5060053;28;20468;-71
2022/09/08 09:37:35;;;;;;;2.40;1.50;;;19.10;78.50;;;;;;5069163;28;20431;-72
2022/09/08 09:40:11;;;;;;;5.30;1.70;;;19.20;78.00;;;;;;5067275;28;20430;-72
2022/09/08 09:42:51;;;;;;;1.70;1.10;;;19.20;78.70;;;;;;5066978;28;20864;-71
2022/09/08 09:45:31;;;;;;;2.10;1.58;;;19.40;76.80;;;;;;5072201;28;20425;-72
2022/09/08 09:48:24;;;;;;;2.10;1.02;;;19.60;77.30;;;;;;5073432;28;20416;-71
2022/09/08 09:51:17;;;;;;;2.40;1.10;;;19.90;75.40;;;;;;5061744;28;20515;-71
2022/09/08 09:54:08;;;;;;;1.95;1.10;;;20.30;73.20;;;;;;5056994;28;20507;-72
2022/09/08 09:56:53;;;;;;;1.33;0.90;;;20.50;70.10;;;;;;5068290;28;20430;-71
2022/09/08 09:59:55;;;;;;;2.28;1.20;;;20.60;68.40;;;;;;5067250;28;20431;-72
2022/09/08 10:03:04;;;;;;;1.80;0.90;;;20.60;68.30;;;;;;5049114;28;20422;-72
2022/09/08 10:06:07;;;;;;;2.20;0.80;;;20.70;70.00;;;;;;5058040;28;20438;-70
2022/09/08 10:09:09;;;;;;;2.20;0.70;;;20.70;65.80;;;;;;5061431;28;20432;-72
2022/09/08 10:12:12;;;;;;;2.30;0.90;;;20.50;66.60;;;;;;5058956;28;20423;-72
2022/09/08 10:15:07;;;;;;;2.60;1.30;;;20.30;67.40;;;;;;5050509;28;20442;-72
2022/09/08 10:18:20;;;;;;;3.20;0.82;;;20.20;69.50;;;;;;5069088;28;20523;-73
2022/09/08 10:21:27;;;;;;;1.40;0.80;;;20.20;66.90;;;;;;5067166;28;20727;-71
2022/09/08 10:24:42;;;;;;;1.70;1.00;;;20.20;65.40;;;;;;5064676;28;20436;-72
2022/09/08 10:27:40;;;;;;;2.35;0.80;;;20.20;66.60;;;;;;5069521;28;20431;-73
2022/09/08 10:30:45;;;;;;;2.20;1.20;;;20.50;64.10;;;;;;5067371;28;21056;-73
2022/09/08 10:33:43;;;;;;;2.60;1.10;;;20.70;66.00;;;;;;5050268;28;20407;-72
2022/09/08 10:36:12;;;;;;;2.03;1.10;;;20.80;63.10;;;;;;5065666;28;20495;-73
2022/09/08 10:38:51;;;;;;;2.13;1.00;;;21.00;63.80;;;;;;5064592;28;20428;-73
2022/09/08 10:42:01;;;;;;;1.92;0.90;;;21.30;61.00;;;;;;5075526;28;21065;-73
2022/09/08 10:44:41;;;;;;;1.98;1.10;;;21.30;62.10;;;;;;5067165;28;20509;-72
2022/09/08 10:47:43;;;;;;;1.80;0.93;;;21.40;61.00;;;;;;5065244;28;20462;-73
2022/09/08 10:50:21;;;;;;;1.50;0.80;;;21.50;61.60;;;;;;5070123;28;20423;-72
2022/09/08 10:53:29;;;;;;;1.77;1.00;;;21.50;59.90;;;;;;5062247;28;20548;-72
2022/09/08 10:56:13;;;;;;;2.03;0.90;;;21.50;60.60;;;;;;5019220;28;20446;-72
2022/09/08 10:59:24;;;;;;;0.90;0.60;;;21.40;60.60;;;;;;5064421;28;20576;-73
2022/09/08 11:02:29;;;;;;;1.48;0.80;;;21.40;58.90;;;;;;4999552;22;20436;-66
2022/09/08 11:05:27;;;;;;;1.30;0.60;;;21.50;58.30;;;;;;5085014;28;20457;-67
2022/09/08 11:08:43;;;;;;;2.13;1.00;;;21.70;57.40;;;;;;5088566;28;20895;-67
2022/09/08 11:11:41;;;;;;;1.40;0.60;;;22.20;55.90;;;;;;5023172;28;21114;-67
2022/09/08 11:14:24;;;;;;;1.90;0.80;;;22.80;53.60;;;;;;5064357;28;20421;-66
2022/09/08 11:17:12;;;;;;;1.10;0.50;;;23.10;52.00;;;;;;5060586;28;20419;-65
2022/09/08 11:19:40;;;;;;;2.03;0.50;;;23.30;51.00;;;;;;5057721;28;20454;-66
2022/09/08 11:22:21;;;;;;;1.70;0.60;;;23.40;51.70;;;;;;5067727;28;20453;-66
2022/09/08 11:25:01;;;;;;;0.90;0.60;;;23.50;51.20;;;;;;5072807;28;20823;-68
2022/09/08 11:27:36;;;;;;;0.93;0.50;;;23.60;50.80;;;;;;5067394;28;20423;-68
2022/09/08 11:30:18;;;;;;;1.30;0.50;;;23.30;50.20;;;;;;5068862;28;20419;-66
2022/09/08 11:32:56;;;;;;;1.92;0.80;;;22.70;50.60;;;;;;5076788;28;20922;-67
2022/09/08 11:35:32;;;;;;;1.85;1.08;;;22.20;54.50;;;;;;5067588;28;20408;-68
2022/09/08 11:38:16;;;;;;;4.35;3.67;;;21.90;56.20;;;;;;5074908;28;20428;-68
2022/09/08 11:41:12;;;;;;;2.40;1.30;;;21.70;57.40;;;;;;5064135;28;20427;-68
2022/09/08 11:43:54;;;;;;;2.70;1.73;;;21.40;59.40;;;;;;5067910;28;20443;-67
2022/09/08 11:46:33;;;;;;;4.00;2.25;;;21.10;66.60;;;;;;5064753;28;20439;-70
2022/09/08 11:49:36;;;;;;;2.60;1.20;;;20.40;72.80;;;;;;5064585;28;20416;-68
2022/09/08 11:52:31;;;;;;;3.03;1.20;;;19.40;75.00;;;;;;5067482;28;20792;-67
2022/09/08 11:55:18;;;;;;;2.25;1.00;;;18.70;79.60;;;;;;5069696;28;20870;-67
2022/09/08 11:57:57;;;;;;;2.22;1.00;;;18.30;82.40;;;;;;5062899;28;20423;-67
2022/09/08 12:00:42;;;;;;;2.58;0.98;;;18.20;86.50;;;;;;5069158;28;20506;-70
2022/09/08 12:03:49;;;;;;;1.48;1.10;;;18.20;83.00;;;;;;5065886;28;20461;-70
2022/09/08 12:06:46;;;;;;;1.30;0.77;;;18.50;85.50;;;;;;5069211;28;21234;-70
2022/09/08 12:09:41;;;;;;;1.90;0.70;;;19.50;85.50;;;;;;5069601;28;20455;-69
2022/09/08 12:12:28;;;;;;;1.90;0.80;;;20.20;78.40;;;;;;5061971;28;20454;-69
2022/09/08 12:15:16;;;;;;;1.30;0.70;;;20.50;74.40;;;;;;5064240;28;20427;-70
2022/09/08 12:17:56;;;;;;;1.00;0.80;;;21.00;74.20;;;;;;5058314;28;20412;-70
2022/09/08 12:20:36;;;;;;;2.40;0.70;;;21.70;70.60;;;;;;5064003;28;20434;-70
2022/09/08 12:23:29;;;;;;;2.08;0.68;;;22.60;67.40;;;;;;5067058;28;20424;-69
2022/09/08 12:26:23;;;;;;;1.60;0.80;;;22.90;61.00;;;;;;5060160;28;20427;-70
2022/09/08 12:29:17;;;;;;;3.20;1.40;;;23.10;60.70;;;;;;5059615;28;20421;-69
2022/09/08 12:32:01;;;;;;;1.70;0.70;;;23.10;61.60;;;;;;5066629;28;20502;-69
2022/09/08 12:35:00;;;;;;;1.50;0.80;;;22.90;59.60;;;;;;5064133;28;20584;-69
2022/09/08 12:37:42;;;;;;;1.63;0.70;;;22.60;59.70;;;;;;5066590;28;20424;-69
2022/09/08 12:40:32;;;;;;;1.30;0.60;;;22.70;57.70;;;;;;5065437;28;20434;-69
2022/09/08 12:43:15;;;;;;;1.08;0.60;;;23.20;56.80;;;;;;5066151;28;20433;-70
2022/09/08 12:45:53;;;;;;;1.10;0.80;;;23.80;56.10;;;;;;5065342;28;20455;-69
2022/09/08 12:48:30;;;;;;;2.08;0.60;;;24.10;53.20;;;;;;5068020;28;20888;-71
2022/09/08 12:51:04;;;;;;;0.80;0.50;;;24.30;52.70;;;;;;5067276;28;20416;-71
2022/09/08 12:53:46;;;;;;;0.83;0.50;;;24.50;50.90;;;;;;5066351;28;20437;-70
2022/09/08 12:56:21;;;;;;;1.50;0.60;;;24.70;49.70;;;;;;5071207;28;20437;-70
2022/09/08 12:59:02;;;;;;;0.90;0.50;;;24.60;48.10;;;;;;5066745;28;20553;-70
2022/09/08 13:01:36;;;;;;;1.80;0.70;;;24.70;49.70;;;;;;5069768;28;20431;-68
2022/09/08 13:04:24;;;;;;;1.73;0.60;;;25.00;49.30;;;;;;5065952;28;20436;-68
2022/09/08 13:07:08;;;;;;;2.80;0.70;;;25.20;44.90;;;;;;5060781;28;20419;-69
2022/09/08 13:09:41;;;;;;;1.90;0.68;;;25.40;47.80;;;;;;5065944;28;20414;-71
2022/09/08 13:12:39;;;;;;;1.50;0.60;;;25.40;45.60;;;;;;5068210;28;20428;-69
2022/09/08 13:15:25;;;;;;;1.15;0.50;;;25.30;45.20;;;;;;5064215;28;20982;-71
2022/09/08 13:17:59;;;;;;;2.10;0.50;;;25.50;44.60;;;;;;5062726;28;20439;-69
2022/09/08 13:20:38;;;;;;;2.57;0.60;;;25.30;44.70;;;;;;5059281;28;20416;-69
2022/09/08 13:23:24;;;;;;;1.45;0.70;;;24.90;44.90;;;;;;5066191;28;20802;-69
2022/09/08 13:26:03;;;;;;;1.20;0.63;;;24.70;44.00;;;;;;5066187;28;20455;-69
2022/09/08 13:28:49;;;;;;;1.73;0.67;;;25.00;46.30;;;;;;5068840;28;20423;-69
2022/09/08 13:31:27;;;;;;;1.50;0.70;;;25.20;45.00;;;;;;5063761;28;20501;-71
2022/09/08 13:34:11;;;;;;;1.30;0.60;;;24.70;45.00;;;;;;5071042;28;20411;-68
2022/09/08 13:36:53;;;;;;;1.90;0.60;;;24.10;44.90;;;;;;5059177;28;20445;-69
2022/09/08 13:39:48;;;;;;;1.42;0.90;;;23.80;44.50;;;;;;5066147;28;20435;-69